Hartland Point — ZIQS6 — position and weather

sailwx.info

Track history (hours):
 
Tides and Currents Weather Stations Pressure Air Temp Water Temp Dewpoint Dewpoint Depression Visibility Wind Speed Wind Dir Waves Ship Positions

Hartland Point

Last reported at 2017-Mar-27 19:32 UTC. Time now 2017-Mar-27 20:34 UTC.
Position N 50°54' W 001°25'.

Length 193 m; draft 5.7 m.

Type: Ship. MMSI: 235505000.

Date/timePositionNaut miles runAvg speedWind from/ knotsBaromVisibWave heightAir tempDewpointWater temp
2017-Mar-27 19:32N 50°54' W 001°25'0 0.0
2017-Mar-27 18:33N 50°54' W 001°25'0 0.0
2017-Mar-27 17:28N 50°54' W 001°25'0 0.0
2017-Mar-27 16:33N 50°54' W 001°25'0 0.0
2017-Mar-27 15:33N 50°54' W 001°25'0 0.0
2017-Mar-27 14:26N 50°54' W 001°25'0 0.0
2017-Mar-27 11:10N 50°54' W 001°25'0 0.2
2017-Mar-27 10:33N 50°54' W 001°25'7 7.2
2017-Mar-27 09:33N 50°48' W 001°17'5 4.6
2017-Mar-27 08:33N 50°45' W 001°22'0 0.1
2017-Mar-27 07:31N 50°45' W 001°22'0 0.0
2017-Mar-27 06:31N 50°45' W 001°22'0 0.0
2017-Mar-27 05:33N 50°45' W 001°22'0 0.0
2017-Mar-27 04:33N 50°45' W 001°22'0 0.1
2017-Mar-27 03:33N 50°45' W 001°23'0 0.0
2017-Mar-27 02:32N 50°45' W 001°23'0 0.0
2017-Mar-27 01:32N 50°45' W 001°23'0 0.0
2017-Mar-27 00:31N 50°45' W 001°23'0 0.0
2017-Mar-26 23:33N 50°45' W 001°23'0 0.0
2017-Mar-26 22:33N 50°45' W 001°22'0 0.0
2017-Mar-26 21:33N 50°45' W 001°22'0 0.1
2017-Mar-26 20:33N 50°45' W 001°22'0 0.0
2017-Mar-26 19:32N 50°45' W 001°22'0 0.0
2017-Mar-26 18:32N 50°45' W 001°22'0 0.0
2017-Mar-26 17:31N 50°45' W 001°22'0 0.0
2017-Mar-26 16:31N 50°45' W 001°22'6 6.7
2017-Mar-26 15:34N 50°43' W 001°32'9 9.1
2017-Mar-26 14:34N 50°35' W 001°40'1 1.0
2017-Mar-26 13:34N 50°34' W 001°41'2 2.4
2017-Mar-26 12:34N 50°32' W 001°42'4 4.2
2017-Mar-26 11:32N 50°28' W 001°44'5 4.8
2017-Mar-26 10:32N 50°23' W 001°44'5 5.1
2017-Mar-26 09:32N 50°18' W 001°46'14 7.0
2017-Mar-26 07:33N 50°08' W 002°01'3611.9
2017-Mar-26 04:33N 49°52' W 002°51'1211.0
2017-Mar-26 03:26N 49°46' W 003°07'910.5
2017-Mar-26 02:33N 49°41' W 003°19'86 7.8
2017-Mar-25 15:32N 48°57' W 005°14'6 6.2
2017-Mar-25 14:30N 48°53' W 005°21'1212.5
2017-Mar-25 13:31N 48°46' W 005°36'1514.9
2017-Mar-25 12:32N 48°33' W 005°46'  
2017-Mar-20 17:33N 28°16' W 015°20'8 1.0
2017-Mar-20 09:18N 28°08' W 015°21'  
Track history (hours):
 
Tides and Currents Weather Stations Pressure Air Temp Water Temp Dewpoint Dewpoint Depression Visibility Wind Speed Wind Dir Waves Ship Positions

Hartland Point

Last reported at 2017-Mar-27 19:32 UTC. Time now 2017-Mar-27 20:34 UTC.
Position N 50°54' W 001°25'.

Length 193 m; draft 5.7 m.

Type: Ship. MMSI: 235505000.

Date/timePositionNaut miles runAvg speedWind from/ knotsBaromVisibWave heightAir tempDewpointWater temp
2017-Mar-27 19:32N 50°54' W 001°25'0 0.0
2017-Mar-27 18:33N 50°54' W 001°25'0 0.0
2017-Mar-27 17:28N 50°54' W 001°25'0 0.0
2017-Mar-27 16:33N 50°54' W 001°25'0 0.0
2017-Mar-27 15:33N 50°54' W 001°25'0 0.0
2017-Mar-27 14:26N 50°54' W 001°25'0 0.0
2017-Mar-27 11:10N 50°54' W 001°25'0 0.2
2017-Mar-27 10:33N 50°54' W 001°25'7 7.2
2017-Mar-27 09:33N 50°48' W 001°17'5 4.6
2017-Mar-27 08:33N 50°45' W 001°22'0 0.1
2017-Mar-27 07:31N 50°45' W 001°22'0 0.0
2017-Mar-27 06:31N 50°45' W 001°22'0 0.0
2017-Mar-27 05:33N 50°45' W 001°22'0 0.0
2017-Mar-27 04:33N 50°45' W 001°22'0 0.1
2017-Mar-27 03:33N 50°45' W 001°23'0 0.0
2017-Mar-27 02:32N 50°45' W 001°23'0 0.0
2017-Mar-27 01:32N 50°45' W 001°23'0 0.0
2017-Mar-27 00:31N 50°45' W 001°23'0 0.0
2017-Mar-26 23:33N 50°45' W 001°23'0 0.0
2017-Mar-26 22:33N 50°45' W 001°22'0 0.0
2017-Mar-26 21:33N 50°45' W 001°22'0 0.1
2017-Mar-26 20:33N 50°45' W 001°22'0 0.0
2017-Mar-26 19:32N 50°45' W 001°22'0 0.0
2017-Mar-26 18:32N 50°45' W 001°22'0 0.0
2017-Mar-26 17:31N 50°45' W 001°22'0 0.0
2017-Mar-26 16:31N 50°45' W 001°22'6 6.7
2017-Mar-26 15:34N 50°43' W 001°32'9 9.1
2017-Mar-26 14:34N 50°35' W 001°40'1 1.0
2017-Mar-26 13:34N 50°34' W 001°41'2 2.4
2017-Mar-26 12:34N 50°32' W 001°42'4 4.2
2017-Mar-26 11:32N 50°28' W 001°44'5 4.8
2017-Mar-26 10:32N 50°23' W 001°44'5 5.1
2017-Mar-26 09:32N 50°18' W 001°46'14 7.0
2017-Mar-26 07:33N 50°08' W 002°01'3611.9
2017-Mar-26 04:33N 49°52' W 002°51'1211.0
2017-Mar-26 03:26N 49°46' W 003°07'910.5
2017-Mar-26 02:33N 49°41' W 003°19'86 7.8
2017-Mar-25 15:32N 48°57' W 005°14'6 6.2
2017-Mar-25 14:30N 48°53' W 005°21'1212.5
2017-Mar-25 13:31N 48°46' W 005°36'1514.9
2017-Mar-25 12:32N 48°33' W 005°46'  
2017-Mar-20 17:33N 28°16' W 015°20'8 1.0
2017-Mar-20 09:18N 28°08' W 015°21'  

Dump ship's entire track history